Terminal Aerodrome Forecast
Issued by NWS

Home | Current Version | Previous Version | Text Only | Print | Product List | Glossary On
Versions: 1 2 3 4 5 6 7 8 9 10 11 12 13 14 15 16 17 18 19 20 21 22 23 24 25 26 27 28 29 30 31 32 33 34 35 36
050
FTAK31 PANC 242333
TAFACD
TAF
PACD 242333Z 2500/2524 21033G45KT P6SM -SHRA BKN040
     FM251500 19025G35KT P6SM VCSH SCT030 OVC050
     FM251800 20030G38KT P6SM -SHRA OVC025=

USA.gov is the U.S. government's official web portal to all federal, state and local government web resources and services.